Change the Weather History Date:

Monday, February 4, 2013

  Actual Average Record
Temperature  
Mean Temperature 40 °F -  
Max Temperature 46 °F 36 °F 62 °F (1963)
Min Temperature 33 °F 13 °F -28 °F (1989)
Degree Days  
Heating Degree Days 26    
Moisture  
Dew Point 17 °F    
Average Humidity 37    
Maximum Humidity 52    
Minimum Humidity 29    
Precipitation  
Precipitation 0.00 in - - ()
Sea Level Pressure  
Sea Level Pressure 29.86 in    
Wind  
Wind Speed 12 mph (West)    
Max Wind Speed 30 mph    
Max Gust Speed 41 mph    
Visibility 10 miles    
Events      
Averages and records for this station are not official NWS values.
T = Trace of Precipitation, MM = Missing Value Source: NWS Daily Summary

Daily Weather History Graph

Daily Weather History Graph

Search for Another Location

Airport or City:

Trip Planner

Search our weather history database for the weather conditions in past years. The results will help you decide how hot, cold, wet, or windy it might be!

Date:

Astronomy

Feb. 04, 2013 Rise Set
Actual Time 7:30 AM MST 5:29 PM MST
Civil Twilight 7:00 AM MST 6:00 PM MST
Nautical Twilight 6:25 AM MST 6:35 PM MST
Astronomical Twilight 5:51 AM MST 7:09 PM MST
Moon 2:13 AM MST (2/4) 11:52 AM MST (2/4)
Length of Visible Light 11h 00m
Length of Day
9h 59m
Last Quarter, 36% of the Moon is Illuminated
Feb 4
Last Quarter
Feb 10
New
Feb 17
First Quarter
Feb 25
Full
Mar 4
Last Quarter

Hourly Weather History & Observations

Time (MST) Temp. Windchill Dew Point Humidity Pressure Visibility Wind Dir Wind Speed Gust Speed Precip Events Conditions
12:15 AM 42.8 °F 35.8 °F 12.2 °F 29% 29.91 in 10.0 mi West 13.8 mph 19.6 mph N/A   Overcast
12:35 AM 41.0 °F 33.9 °F 12.2 °F 31% 29.91 in 10.0 mi West 12.7 mph 17.3 mph N/A   Overcast
12:55 AM 41.0 °F 33.1 °F 12.2 °F 31% 29.90 in 10.0 mi West 15.0 mph 24.2 mph N/A   Mostly Cloudy
1:15 AM 39.2 °F 32.0 °F 12.2 °F 33% 29.90 in 10.0 mi WSW 11.5 mph - N/A   Mostly Cloudy
1:35 AM 39.2 °F 32.0 °F 12.2 °F 33% 29.89 in 10.0 mi WSW 11.5 mph 18.4 mph N/A   Overcast
1:55 AM 39.2 °F 32.0 °F 12.2 °F 33% 29.89 in 10.0 mi SW 11.5 mph 18.4 mph N/A   Overcast
2:15 AM 42.8 °F 36.2 °F 12.2 °F 29% 29.88 in 10.0 mi WSW 12.7 mph 19.6 mph N/A   Overcast
3:36 AM 37.4 °F 32.1 °F 14.0 °F 38% 29.89 in 10.0 mi NW 6.9 mph - N/A   Overcast
3:55 AM 37.4 °F 30.8 °F 15.8 °F 41% 29.89 in 10.0 mi West 9.2 mph - N/A   Overcast
4:15 AM 39.2 °F 31.6 °F 12.2 °F 33% 29.88 in 10.0 mi West 12.7 mph 19.6 mph N/A   Overcast
4:35 AM 39.2 °F 33.0 °F 12.2 °F 33% 29.88 in 10.0 mi WSW 9.2 mph - N/A   Overcast
4:55 AM 39.2 °F 31.6 °F 14.0 °F 36% 29.88 in 10.0 mi WNW 12.7 mph 19.6 mph N/A   Overcast
5:15 AM 39.2 °F 31.6 °F 15.8 °F 39% 29.88 in 10.0 mi West 12.7 mph 24.2 mph N/A   Overcast
5:35 AM 41.0 °F 34.7 °F 14.0 °F 33% 29.88 in 10.0 mi NNW 10.4 mph 24.2 mph N/A   Overcast
5:55 AM 39.2 °F 31.2 °F 14.0 °F 36% 29.88 in 10.0 mi NW 13.8 mph 20.7 mph N/A   Mostly Cloudy
6:15 AM 39.2 °F 32.5 °F 12.2 °F 33% 29.87 in 10.0 mi West 10.4 mph 20.7 mph N/A   Partly Cloudy
6:35 AM 39.2 °F 34.2 °F 14.0 °F 36% 29.87 in 10.0 mi NW 6.9 mph - N/A   Partly Cloudy
6:55 AM 37.4 °F 32.8 °F 15.8 °F 41% 29.88 in 10.0 mi West 5.8 mph - N/A   Clear
7:15 AM 35.6 °F 30.7 °F 14.0 °F 41% 29.88 in 10.0 mi SSW 5.8 mph - N/A   Scattered Clouds
7:35 AM 39.2 °F 32.5 °F 14.0 °F 36% 29.88 in 10.0 mi WSW 10.4 mph 21.9 mph N/A   Scattered Clouds
7:55 AM 37.4 °F 31.4 °F 12.2 °F 36% 29.87 in 10.0 mi NW 8.1 mph - N/A   Clear
8:15 AM 37.4 °F - 15.8 °F 41% 29.87 in 10.0 mi Calm Calm - N/A   Clear
8:35 AM 37.4 °F 34.9 °F 15.8 °F 41% 29.88 in 10.0 mi SSW 3.5 mph - N/A   Partly Cloudy
8:55 AM 37.4 °F 34.9 °F 15.8 °F 41% 29.88 in 10.0 mi North 3.5 mph - N/A   Clear
9:15 AM 39.2 °F 33.6 °F 15.8 °F 39% 29.87 in 10.0 mi NNW 8.1 mph 18.4 mph N/A   Partly Cloudy
9:35 AM 42.8 °F 37.5 °F 17.6 °F 36% 29.87 in 10.0 mi West 9.2 mph 23.0 mph N/A   Partly Cloudy
9:55 AM 42.8 °F 35.4 °F 15.8 °F 34% 29.86 in 10.0 mi West 15.0 mph 24.2 mph N/A   Partly Cloudy
10:15 AM 42.8 °F 36.6 °F 17.6 °F 36% 29.88 in 10.0 mi West 11.5 mph 23.0 mph N/A   Partly Cloudy
10:35 AM 42.8 °F 35.1 °F 17.6 °F 36% 29.88 in 10.0 mi West 16.1 mph 28.8 mph N/A   Scattered Clouds
10:55 AM 42.8 °F 34.8 °F 17.6 °F 36% 29.88 in 10.0 mi West 17.3 mph 24.2 mph N/A   Mostly Cloudy
11:15 AM 42.8 °F 37.5 °F 17.6 °F 36% 29.87 in 10.0 mi WNW 9.2 mph 26.5 mph N/A   Overcast
11:35 AM 44.6 °F 36.1 °F 17.6 °F 34% 29.86 in 10.0 mi WSW 21.9 mph 36.8 mph N/A   Scattered Clouds
11:55 AM 44.6 °F 36.4 °F 17.6 °F 34% 29.85 in 10.0 mi West 20.7 mph 34.5 mph N/A   Clear
12:35 PM 46.4 °F 38.5 °F 19.4 °F 34% 29.83 in 10.0 mi West 21.9 mph 35.7 mph N/A   Clear
12:55 PM 46.4 °F 39.8 °F 17.6 °F 32% 29.85 in 10.0 mi West 16.1 mph 32.2 mph N/A   Clear
1:15 PM 44.6 °F 36.9 °F 17.6 °F 34% 29.84 in 10.0 mi West 18.4 mph 34.5 mph N/A   Clear
1:35 PM 44.6 °F 38.1 °F 17.6 °F 34% 29.84 in 10.0 mi WSW 13.8 mph 26.5 mph N/A   Clear
1:55 PM 44.6 °F 36.4 °F 17.6 °F 34% 29.83 in 10.0 mi West 20.7 mph 32.2 mph N/A   Clear
2:15 PM 46.4 °F 39.0 °F 17.6 °F 32% 29.82 in 10.0 mi WSW 19.6 mph 28.8 mph N/A   Clear
2:35 PM 44.6 °F 36.9 °F 19.4 °F 37% 29.81 in 10.0 mi WSW 18.4 mph 29.9 mph N/A   Clear
2:55 PM 44.6 °F 37.2 °F 19.4 °F 37% 29.83 in 10.0 mi West 17.3 mph 27.6 mph N/A   Scattered Clouds
3:35 PM 44.6 °F 34.7 °F 19.4 °F 37% 29.81 in 10.0 mi West 29.9 mph 41.4 mph N/A   Scattered Clouds
3:55 PM 44.6 °F 36.1 °F 19.4 °F 37% 29.84 in 10.0 mi West 21.9 mph 39.1 mph N/A   Clear
4:15 PM 42.8 °F 35.4 °F 21.2 °F 42% 29.83 in 10.0 mi West 15.0 mph 41.4 mph N/A   Clear
4:35 PM 42.8 °F 34.0 °F 19.4 °F 39% 29.83 in 10.0 mi West 20.7 mph 32.2 mph N/A   Clear
5:15 PM 42.8 °F 34.3 °F 19.4 °F 39% 29.82 in 10.0 mi WSW 19.6 mph 29.9 mph N/A   Partly Cloudy
5:35 PM 42.8 °F 33.1 °F 19.4 °F 39% 29.82 in 10.0 mi WSW 25.3 mph 41.4 mph N/A   Clear
5:55 PM 42.8 °F 34.5 °F 19.4 °F 39% 29.83 in 10.0 mi West 18.4 mph 27.6 mph N/A   Clear
6:15 PM 42.8 °F 33.8 °F 19.4 °F 39% 29.84 in 10.0 mi West 21.9 mph 28.8 mph N/A   Clear
6:35 PM 42.8 °F 35.4 °F 19.4 °F 39% 29.85 in 10.0 mi WNW 15.0 mph 28.8 mph N/A   Clear
6:55 PM 42.8 °F 37.0 °F 19.4 °F 39% 29.82 in 10.0 mi West 10.4 mph 21.9 mph N/A   Clear
7:15 PM 42.8 °F 34.5 °F 19.4 °F 39% 29.83 in 10.0 mi West 18.4 mph 28.8 mph N/A   Clear
7:55 PM 42.8 °F 36.6 °F 19.4 °F 39% 29.85 in 10.0 mi WSW 11.5 mph 23.0 mph N/A   Clear
8:16 PM 42.8 °F 39.3 °F 19.4 °F 39% 29.85 in 10.0 mi West 5.8 mph 19.6 mph N/A   Clear
8:35 PM 42.8 °F 38.6 °F 19.4 °F 39% 29.85 in 10.0 mi WSW 6.9 mph - N/A   Partly Cloudy
8:55 PM 41.0 °F - 19.4 °F 42% 29.86 in 10.0 mi Calm Calm - N/A   Clear
9:15 PM 41.0 °F 38.0 °F 17.6 °F 39% 29.87 in 10.0 mi WSW 4.6 mph - N/A   Clear
9:35 PM 42.8 °F 37.0 °F 19.4 °F 39% 29.86 in 10.0 mi SSW 10.4 mph - N/A   Clear
9:55 PM 42.8 °F 39.3 °F 19.4 °F 39% 29.87 in 10.0 mi WSW 5.8 mph - N/A   Clear
10:15 PM 41.0 °F 36.4 °F 17.6 °F 39% 29.88 in 10.0 mi West 6.9 mph - N/A   Clear
10:35 PM 41.0 °F 34.7 °F 17.6 °F 39% 29.88 in 10.0 mi NE 10.4 mph 16.1 mph N/A   Clear
10:55 PM 37.4 °F 34.9 °F 19.4 °F 48% 29.88 in 10.0 mi NE 3.5 mph - N/A   Clear
11:15 PM 33.8 °F - 17.6 °F 52% 29.88 in 10.0 mi Calm Calm - N/A   Clear
11:35 PM 37.4 °F - 19.4 °F 48% 29.88 in 10.0 mi Calm Calm - N/A   Clear
11:55 PM 37.4 °F 32.8 °F 19.4 °F 48% 29.89 in 10.0 mi East 5.8 mph - N/A   Clear